Connelly Springs, North Carolina
Current Conditions -  °F | °C
As of 3:05 AM on Monday 24 Nov 2014 (Local Time) from KHKY Reporting Station
Overcast Overcast  
Wind Chill: 57°   Ceiling: 1000
Heat Index: 57°   Visibility: 10mi
Dew Point: 54°   Wind: 8mph
Humidity: 89%   Direction: 200°SSW
Pressure: 29.72"   Gusts: NA
Location:  35.6588°N, 81.5286°W
Report Text: KHKY 240805Z AUTO 20007KT 10SM OVC010 14/12 A2972 RMK AO2 T01390122
Loading
Personal Weather Stations






























Interactive Weather Map New forecast layout! Learn more

10-Day Weather Forecast

Advertisements
Track Severe Weather on mobile